createdAt,value
2023-01-15T00:02:09.312Z,95660.47
2023-01-15T00:04:37.613Z,95642.69
2023-01-15T00:07:06.582Z,95665.22
2023-01-15T00:09:36.184Z,95664.28
2023-01-15T00:12:04.923Z,95664.34
2023-01-15T00:14:33.210Z,95670.50
2023-01-15T00:17:01.605Z,95667.69
2023-01-15T00:19:29.960Z,95661.78
2023-01-15T00:21:58.524Z,95648.09
2023-01-15T00:24:44.274Z,95661.38
2023-01-15T00:27:31.580Z,95658.50
2023-01-15T00:29:59.871Z,95655.06
2023-01-15T00:32:29.875Z,95661.44
2023-01-15T00:34:59.421Z,95636.06
2023-01-15T00:37:27.700Z,95658.19
2023-01-15T00:39:55.946Z,95658.56
2023-01-15T00:42:25.739Z,95649.47
2023-01-15T00:44:54.072Z,95657.25
2023-01-15T00:47:22.359Z,95652.91
2023-01-15T00:49:51.779Z,95648.84
2023-01-15T00:52:20.063Z,95653.03
2023-01-15T00:54:48.518Z,95650.75
2023-01-15T00:57:16.788Z,95655.97
2023-01-15T00:59:46.505Z,95655.81
2023-01-15T01:02:14.832Z,95653.84
2023-01-15T01:04:43.208Z,95650.72
2023-01-15T01:07:11.872Z,95648.31
2023-01-15T01:09:40.282Z,95653.59
2023-01-15T01:12:08.921Z,95603.72
2023-01-15T01:14:38.602Z,95624.59
2023-01-15T01:17:08.334Z,95681.47
2023-01-15T01:19:38.169Z,95654.72
2023-01-15T01:22:06.407Z,95649.00
2023-01-15T01:24:34.876Z,95652.06
2023-01-15T01:27:03.214Z,95650.66
2023-01-15T01:29:31.531Z,95648.31
2023-01-15T01:31:59.860Z,95645.72
2023-01-15T01:34:29.638Z,95643.28
2023-01-15T01:36:57.917Z,95650.06
2023-01-15T01:39:26.155Z,95653.34
2023-01-15T01:41:54.511Z,95649.91
2023-01-15T01:45:01.146Z,95650.66
2023-01-15T01:47:33.279Z,95654.06
2023-01-15T01:50:06.917Z,95645.78
2023-01-15T01:52:40.764Z,95650.34
2023-01-15T01:55:11.041Z,95586.81
2023-01-15T01:57:40.802Z,95635.84
2023-01-15T02:00:11.778Z,95560.03
2023-01-15T02:02:40.969Z,95622.34
2023-01-15T02:05:14.153Z,95599.22
2023-01-15T02:07:42.528Z,95623.91
2023-01-15T02:10:15.820Z,95631.53
2023-01-15T02:12:50.684Z,95632.91
2023-01-15T02:15:24.299Z,95634.53
2023-01-15T02:18:01.999Z,95628.41
2023-01-15T02:20:37.955Z,95626.81
2023-01-15T02:23:47.320Z,95623.69
2023-01-15T02:26:39.591Z,95616.03
2023-01-15T02:29:13.573Z,95620.63
2023-01-15T02:31:45.105Z,95627.41
2023-01-15T02:34:18.399Z,95630.00
2023-01-15T02:36:53.090Z,95620.31
2023-01-15T02:39:22.830Z,95635.34
2023-01-15T02:41:55.415Z,95577.72
2023-01-15T02:44:28.327Z,95634.41
2023-01-15T02:46:57.886Z,95628.38
2023-01-15T02:49:26.615Z,95568.84
2023-01-15T02:52:02.616Z,95555.94
2023-01-15T02:54:35.319Z,95601.13
2023-01-15T02:57:06.421Z,95623.00
2023-01-15T02:59:39.744Z,95579.31
2023-01-15T03:02:12.218Z,95627.00
2023-01-15T03:04:45.585Z,95623.56
2023-01-15T03:07:18.903Z,95587.03
2023-01-15T03:09:48.546Z,95636.53
2023-01-15T03:12:25.189Z,95641.81
2023-01-15T03:15:03.171Z,95641.94
2023-01-15T03:17:37.717Z,95643.84
2023-01-15T03:20:13.480Z,95642.28
2023-01-15T03:22:47.439Z,95643.66
2023-01-15T03:25:20.468Z,95614.59
2023-01-15T03:27:51.745Z,95650.38
2023-01-15T03:30:22.650Z,95656.47
2023-01-15T03:32:51.252Z,95656.94
2023-01-15T03:35:48.272Z,95649.78
2023-01-15T03:38:19.087Z,95651.66
2023-01-15T03:40:54.435Z,95604.38
2023-01-15T03:43:43.800Z,95651.97
2023-01-15T03:46:27.975Z,95640.75
2023-01-15T03:49:03.514Z,95649.63
2023-01-15T03:51:36.315Z,95654.00
2023-01-15T03:54:10.776Z,95640.34
2023-01-15T03:56:50.850Z,95649.19
2023-01-15T03:59:24.784Z,95649.91
2023-01-15T04:01:55.363Z,95649.03
2023-01-15T04:04:25.182Z,95650.22
2023-01-15T04:06:54.661Z,95654.88
2023-01-15T04:09:24.099Z,95612.84
2023-01-15T04:11:52.338Z,95650.19
2023-01-15T04:14:22.058Z,95617.25
2023-01-15T04:16:50.355Z,95653.06
2023-01-15T04:19:18.722Z,95614.75
2023-01-15T04:21:47.077Z,95652.66
2023-01-15T04:24:15.345Z,95651.16
2023-01-15T04:26:43.612Z,95658.66
2023-01-15T04:29:12.203Z,95643.38
2023-01-15T04:31:41.937Z,95658.13
2023-01-15T04:34:10.264Z,95658.44
2023-01-15T04:36:38.576Z,95657.88
2023-01-15T04:39:07.009Z,95666.53
2023-01-15T04:41:49.048Z,95657.66
2023-01-15T04:44:17.340Z,95662.94
2023-01-15T04:46:48.863Z,95640.81
2023-01-15T04:49:18.881Z,95619.16
2023-01-15T04:51:47.376Z,95632.97
2023-01-15T04:54:17.953Z,95668.53
2023-01-15T04:56:48.795Z,95670.59
2023-01-15T04:59:18.489Z,95679.53
2023-01-15T05:02:02.653Z,95681.22
2023-01-15T05:04:32.827Z,95677.22
2023-01-15T05:07:03.154Z,95579.56
2023-01-15T05:09:31.902Z,95668.19
2023-01-15T05:12:00.265Z,95673.47
2023-01-15T05:14:28.651Z,95676.22
2023-01-15T05:16:58.347Z,95670.69
2023-01-15T05:19:26.701Z,95681.16
2023-01-15T05:21:54.981Z,95681.47
2023-01-15T05:24:23.358Z,95688.22
2023-01-15T05:26:51.687Z,95682.63
2023-01-15T05:29:19.980Z,95693.50
2023-01-15T05:31:48.531Z,95700.94
2023-01-15T05:34:18.196Z,95681.16
2023-01-15T05:36:46.747Z,95696.50
2023-01-15T05:39:15.049Z,95694.44
2023-01-15T05:41:52.974Z,95628.28
2023-01-15T05:44:23.689Z,95705.00
2023-01-15T05:46:53.185Z,95680.78
2023-01-15T05:49:24.382Z,95711.94
2023-01-15T05:51:53.953Z,95706.78
2023-01-15T05:54:23.864Z,95708.13
2023-01-15T05:56:53.274Z,95631.50
2023-01-15T05:59:24.980Z,95704.16
2023-01-15T06:01:53.916Z,95709.78
2023-01-15T06:04:25.369Z,95703.91
2023-01-15T06:06:55.771Z,95703.97
2023-01-15T06:09:24.317Z,95630.78
2023-01-15T06:11:54.203Z,95704.28
2023-01-15T06:14:22.605Z,95711.22
2023-01-15T06:16:50.947Z,95700.81
2023-01-15T06:19:19.321Z,95661.94
2023-01-15T06:21:49.203Z,95710.75
2023-01-15T06:24:18.125Z,95713.28
2023-01-15T06:26:46.382Z,95713.25
2023-01-15T06:29:18.894Z,95637.91
2023-01-15T06:31:48.356Z,95723.47
2023-01-15T06:34:16.886Z,95726.75
2023-01-15T06:36:45.271Z,95720.72
2023-01-15T06:39:15.027Z,95709.50
2023-01-15T06:42:00.913Z,95721.63
2023-01-15T06:44:46.231Z,95718.88
2023-01-15T06:47:24.326Z,95723.13
2023-01-15T06:49:55.169Z,95651.75
2023-01-15T06:52:24.283Z,95734.44
2023-01-15T06:54:54.097Z,95685.16
2023-01-15T06:57:22.865Z,95711.81
2023-01-15T06:59:51.780Z,95735.13
2023-01-15T07:02:21.901Z,95741.06
2023-01-15T07:04:50.558Z,95737.94
2023-01-15T07:07:20.357Z,95743.19
2023-01-15T07:09:48.672Z,95741.50
2023-01-15T07:12:18.648Z,95742.41
2023-01-15T07:14:47.039Z,95717.41
2023-01-15T07:17:16.157Z,95736.00
2023-01-15T07:19:46.032Z,95747.75
2023-01-15T07:22:14.469Z,95746.22
2023-01-15T07:24:42.929Z,95746.22
2023-01-15T07:27:11.598Z,95715.75
2023-01-15T07:29:41.375Z,95737.38
2023-01-15T07:32:09.706Z,95743.78
2023-01-15T07:34:38.056Z,95740.94
2023-01-15T07:37:06.402Z,95744.34
2023-01-15T07:39:34.764Z,95740.06
2023-01-15T07:42:20.551Z,95741.00
2023-01-15T07:45:07.579Z,95738.91
2023-01-15T07:47:53.225Z,95738.69
2023-01-15T07:50:24.543Z,95733.31
2023-01-15T07:52:53.900Z,95744.75
2023-01-15T07:55:23.096Z,95743.41
2023-01-15T07:57:51.510Z,95745.38
2023-01-15T08:00:24.781Z,95731.75
2023-01-15T08:02:53.893Z,95747.53
2023-01-15T08:05:22.353Z,95751.69
2023-01-15T08:07:50.739Z,95749.25
2023-01-15T08:10:19.884Z,95741.00
2023-01-15T08:13:08.533Z,95638.34
2023-01-15T08:15:42.951Z,95745.38
2023-01-15T08:18:11.281Z,95746.25
2023-01-15T08:20:39.555Z,95743.53
2023-01-15T08:23:07.915Z,95686.47
2023-01-15T08:25:36.215Z,95734.69
2023-01-15T08:28:04.901Z,95731.06
2023-01-15T08:30:33.341Z,95718.25
2023-01-15T08:33:04.102Z,95737.66
2023-01-15T08:35:34.305Z,95734.19
2023-01-15T08:38:06.085Z,95747.50
2023-01-15T08:40:35.758Z,95744.19
2023-01-15T08:43:04.101Z,95734.53
2023-01-15T08:45:32.498Z,95745.53
2023-01-15T08:48:00.804Z,95738.16
2023-01-15T08:50:30.533Z,95756.22
2023-01-15T08:52:58.839Z,95759.13
2023-01-15T08:55:27.232Z,95751.22
2023-01-15T08:57:55.569Z,95734.63
2023-01-15T09:00:24.786Z,95756.69
2023-01-15T09:02:53.122Z,95747.66
2023-01-15T09:05:21.441Z,95750.13
2023-01-15T09:07:51.136Z,95699.81
2023-01-15T09:10:19.615Z,95744.81
2023-01-15T09:12:47.983Z,95741.31
2023-01-15T09:15:16.411Z,95678.00
2023-01-15T09:17:44.793Z,95675.25
2023-01-15T09:20:15.168Z,95741.22
2023-01-15T09:22:43.566Z,95730.56
2023-01-15T09:25:13.222Z,95732.00
2023-01-15T09:27:41.513Z,95731.38
2023-01-15T09:30:12.102Z,95683.75
2023-01-15T09:32:40.409Z,95685.91
2023-01-15T09:35:09.807Z,95726.72
2023-01-15T09:37:38.117Z,95725.81
2023-01-15T09:40:09.395Z,95719.47
2023-01-15T09:42:49.420Z,95714.69
2023-01-15T09:45:27.237Z,95708.91
2023-01-15T09:48:11.863Z,95713.63
2023-01-15T09:50:55.051Z,95710.38
2023-01-15T09:53:38.222Z,95701.72
2023-01-15T09:56:06.923Z,95695.00
2023-01-15T09:58:38.357Z,95699.84
2023-01-15T10:01:07.372Z,95635.97
2023-01-15T10:03:43.105Z,95685.75
2023-01-15T10:06:16.565Z,95674.63
2023-01-15T10:08:47.763Z,95659.91
2023-01-15T10:11:49.674Z,95673.69
2023-01-15T10:14:39.258Z,95657.06
2023-01-15T10:17:20.570Z,95668.63
2023-01-15T10:19:49.170Z,95660.47
2023-01-15T10:22:30.147Z,95646.44
2023-01-15T10:24:59.639Z,95619.66
2023-01-15T10:27:33.558Z,95623.97
2023-01-15T10:30:09.637Z,95626.13
2023-01-15T10:33:00.988Z,95625.97
2023-01-15T10:35:39.025Z,95632.97
2023-01-15T10:38:15.797Z,95618.56
2023-01-15T10:41:19.490Z,95619.88
2023-01-15T10:43:52.332Z,95607.09
2023-01-15T10:46:27.647Z,95614.41
2023-01-15T10:48:58.831Z,95555.63
2023-01-15T10:51:31.661Z,95604.44
2023-01-15T10:54:04.536Z,95595.00
2023-01-15T10:56:37.057Z,95579.09
2023-01-15T10:59:16.441Z,95583.25
2023-01-15T11:01:49.010Z,95499.00
2023-01-15T11:04:17.409Z,95575.78
2023-01-15T11:06:45.853Z,95553.50
2023-01-15T11:09:21.700Z,95560.84
2023-01-15T11:12:08.875Z,95555.75
2023-01-15T11:14:56.547Z,95554.16
2023-01-15T11:17:47.906Z,95544.59
2023-01-15T11:20:26.861Z,95546.25
2023-01-15T11:22:56.506Z,95544.00
2023-01-15T11:25:30.753Z,95442.53
2023-01-15T11:28:01.157Z,95514.09
2023-01-15T11:30:32.212Z,95523.72
2023-01-15T11:33:04.965Z,95517.84
2023-01-15T11:35:34.424Z,95527.56
2023-01-15T11:38:08.279Z,95518.34
2023-01-15T11:40:36.610Z,95504.09
2023-01-15T11:43:22.446Z,95503.69
2023-01-15T11:46:09.724Z,95492.28
2023-01-15T11:49:05.005Z,95498.53
2023-01-15T11:51:44.373Z,95485.41
2023-01-15T11:54:16.533Z,95494.66
2023-01-15T11:56:47.160Z,95491.09
2023-01-15T11:59:20.160Z,95446.66
2023-01-15T12:01:59.608Z,95485.16
2023-01-15T12:04:47.341Z,95476.59
2023-01-15T12:07:18.511Z,95498.53
2023-01-15T12:10:07.101Z,95435.28
2023-01-15T12:12:51.083Z,95472.41
2023-01-15T12:15:35.225Z,95458.72
2023-01-15T12:18:38.735Z,95462.19
2023-01-15T12:21:29.605Z,95452.06
2023-01-15T12:24:27.496Z,95444.75
2023-01-15T12:27:07.597Z,95451.53
2023-01-15T12:29:41.817Z,95450.59
2023-01-15T12:32:15.099Z,95449.50
2023-01-15T12:34:51.100Z,95446.28
2023-01-15T12:37:24.985Z,95440.84
2023-01-15T12:39:59.312Z,95451.97
2023-01-15T12:42:48.232Z,95448.56
2023-01-15T12:45:21.833Z,95443.72
2023-01-15T12:47:56.311Z,95445.19
2023-01-15T12:50:34.462Z,95395.38
2023-01-15T12:53:11.583Z,95443.97
2023-01-15T12:55:45.623Z,95418.66
2023-01-15T12:58:28.552Z,95442.44
2023-01-15T13:01:06.278Z,95429.94
2023-01-15T13:03:47.200Z,95435.22
2023-01-15T13:06:17.050Z,95422.59
2023-01-15T13:08:57.757Z,95421.84
2023-01-15T13:11:26.079Z,95431.25
2023-01-15T13:14:00.365Z,95434.97
2023-01-15T13:16:37.549Z,95425.88
2023-01-15T13:19:27.973Z,95420.75
2023-01-15T13:22:01.549Z,95432.78
2023-01-15T13:24:56.971Z,95421.88
2023-01-15T13:27:39.262Z,95346.63
2023-01-15T13:30:22.387Z,95425.16
2023-01-15T13:32:53.121Z,95433.59
2023-01-15T13:35:32.191Z,95421.72
2023-01-15T13:38:05.067Z,95398.03
2023-01-15T13:40:37.666Z,95418.84
2023-01-15T13:43:09.016Z,95420.16
2023-01-15T13:45:40.108Z,95412.44
2023-01-15T13:48:13.818Z,95412.44
2023-01-15T13:50:44.963Z,95405.22
2023-01-15T13:53:23.487Z,95411.19
2023-01-15T13:55:56.467Z,95407.84
2023-01-15T13:58:27.229Z,95409.50
2023-01-15T14:01:09.088Z,95404.81
2023-01-15T14:03:39.566Z,95410.59
2023-01-15T14:06:09.772Z,95392.94
2023-01-15T14:08:41.042Z,95405.91
2023-01-15T14:11:39.136Z,95409.84
2023-01-15T14:14:45.982Z,95403.19
2023-01-15T14:17:53.997Z,95418.84
2023-01-15T14:20:39.984Z,95414.91
2023-01-15T14:23:29.024Z,95416.69
2023-01-15T14:26:07.698Z,95395.22
2023-01-15T14:28:51.398Z,95412.69
2023-01-15T14:31:28.817Z,95408.47
2023-01-15T14:34:12.264Z,95411.38
2023-01-15T14:36:47.618Z,95412.22
2023-01-15T14:39:31.511Z,95408.44
2023-01-15T14:42:25.081Z,95410.09
2023-01-15T14:45:04.410Z,95406.66
2023-01-15T14:47:37.414Z,95352.81
2023-01-15T14:50:31.431Z,95419.19
2023-01-15T14:53:05.087Z,95362.28
2023-01-15T14:55:35.296Z,95416.31
2023-01-15T14:58:09.233Z,95420.59
2023-01-15T15:00:44.127Z,95415.59
2023-01-15T15:03:18.706Z,95412.44
2023-01-15T15:05:48.044Z,95405.13
2023-01-15T15:08:19.656Z,95411.56
2023-01-15T15:10:54.580Z,95407.84
2023-01-15T15:13:31.313Z,95414.19
2023-01-15T15:16:09.041Z,95420.75
2023-01-15T15:18:43.638Z,95425.88
2023-01-15T15:21:18.773Z,95385.78
2023-01-15T15:23:54.833Z,95417.56
2023-01-15T15:26:26.477Z,95392.50
2023-01-15T15:28:59.749Z,95434.88
2023-01-15T15:31:32.461Z,95441.88
2023-01-15T15:34:01.081Z,95438.16
2023-01-15T15:36:33.066Z,95424.00
2023-01-15T15:39:05.757Z,95431.25
2023-01-15T15:41:55.357Z,95440.72
2023-01-15T15:44:50.833Z,95446.84
2023-01-15T15:47:39.099Z,95342.78
2023-01-15T15:50:08.457Z,95435.53
2023-01-15T15:52:36.934Z,95440.38
2023-01-15T15:55:06.435Z,95437.34
2023-01-15T15:57:36.814Z,95438.19
2023-01-15T16:00:06.248Z,95447.50
2023-01-15T16:02:41.560Z,95441.66
2023-01-15T16:05:23.512Z,95447.09
2023-01-15T16:07:52.607Z,95395.66
2023-01-15T16:10:26.683Z,95453.78
2023-01-15T16:12:56.541Z,95455.81
2023-01-15T16:15:29.725Z,95458.38
2023-01-15T16:18:00.831Z,95454.09
2023-01-15T16:20:29.962Z,95462.81
2023-01-15T16:23:00.623Z,95467.31
2023-01-15T16:25:32.015Z,95468.25
2023-01-15T16:28:01.983Z,95460.59
2023-01-15T16:30:32.350Z,95436.41
2023-01-15T16:33:06.437Z,95473.69
2023-01-15T16:35:37.426Z,95484.91
2023-01-15T16:38:07.690Z,95457.38
2023-01-15T16:40:39.921Z,95479.00
2023-01-15T16:43:11.460Z,95395.59
2023-01-15T16:45:50.457Z,95476.09
2023-01-15T16:48:30.148Z,95482.56
2023-01-15T16:51:00.497Z,95435.03
2023-01-15T16:53:38.681Z,95464.19
2023-01-15T16:56:27.521Z,95426.75
2023-01-15T16:58:55.920Z,95482.94
2023-01-15T17:01:34.328Z,95485.06
2023-01-15T17:04:05.329Z,95468.94
2023-01-15T17:06:37.169Z,95473.06
2023-01-15T17:09:05.853Z,95474.63
2023-01-15T17:11:34.884Z,95474.75
2023-01-15T17:14:11.394Z,95473.97
2023-01-15T17:16:44.517Z,95315.53
2023-01-15T17:19:15.257Z,95477.72
2023-01-15T17:21:49.955Z,95446.47
2023-01-15T17:24:18.766Z,95407.91
2023-01-15T17:26:47.756Z,95464.88
2023-01-15T17:29:16.867Z,95482.81
2023-01-15T17:31:46.166Z,95466.31
2023-01-15T17:34:16.991Z,95461.31
2023-01-15T17:36:49.720Z,95479.00
2023-01-15T17:39:20.430Z,95481.22
2023-01-15T17:41:51.186Z,95481.75
2023-01-15T17:44:20.163Z,95470.78
2023-01-15T17:46:48.851Z,95478.66
2023-01-15T17:49:18.520Z,95440.94
2023-01-15T17:51:46.880Z,95483.75
2023-01-15T17:54:36.119Z,95294.56
2023-01-15T17:57:21.616Z,95490.16
2023-01-15T18:00:07.242Z,95489.31
2023-01-15T18:02:53.651Z,95365.28
2023-01-15T18:05:32.978Z,95486.03
2023-01-15T18:08:05.436Z,95485.28
2023-01-15T18:10:34.852Z,95477.47
2023-01-15T18:13:03.887Z,95393.09
2023-01-15T18:15:32.166Z,95459.66
2023-01-15T18:18:00.599Z,95487.28
2023-01-15T18:20:31.760Z,95494.81
2023-01-15T18:23:00.333Z,95460.00
2023-01-15T18:25:28.863Z,95490.31
2023-01-15T18:27:57.214Z,95479.72
2023-01-15T18:30:25.587Z,95491.44
2023-01-15T18:32:54.120Z,95490.28
2023-01-15T18:35:23.463Z,95485.91
2023-01-15T18:37:53.194Z,95484.13
2023-01-15T18:40:21.684Z,95488.53
2023-01-15T18:43:07.128Z,95492.72
2023-01-15T18:45:52.569Z,95469.97
2023-01-15T18:48:20.849Z,95488.72
2023-01-15T18:50:49.389Z,95421.59
2023-01-15T18:53:19.195Z,95456.00
2023-01-15T18:55:47.465Z,95442.69
2023-01-15T18:58:16.874Z,95479.94
2023-01-15T19:00:45.348Z,95479.59
2023-01-15T19:03:16.180Z,95474.84
2023-01-15T19:05:44.481Z,95418.06
2023-01-15T19:08:12.910Z,95483.53
2023-01-15T19:10:42.618Z,95479.75
2023-01-15T19:13:13.653Z,95462.31
2023-01-15T19:16:00.863Z,95471.81
2023-01-15T19:18:52.667Z,95484.47
2023-01-15T19:21:21.560Z,95473.47
2023-01-15T19:23:50.025Z,95469.97
2023-01-15T19:26:19.791Z,95475.28
2023-01-15T19:28:48.024Z,95434.94
2023-01-15T19:31:35.948Z,95448.72
2023-01-15T19:34:32.082Z,95468.22
2023-01-15T19:36:57.697Z,95480.34
2023-01-15T19:39:26.274Z,95422.63
2023-01-15T19:42:14.596Z,95465.91
2023-01-15T19:45:00.684Z,95474.25
2023-01-15T19:47:48.724Z,95476.59
2023-01-15T19:50:20.016Z,95476.03
2023-01-15T19:52:48.837Z,95472.56
2023-01-15T19:55:18.171Z,95473.59
2023-01-15T19:57:56.457Z,95403.19
2023-01-15T20:00:25.649Z,95452.72
2023-01-15T20:02:54.861Z,95468.59
2023-01-15T20:05:23.439Z,95467.78
2023-01-15T20:07:51.915Z,95459.13
2023-01-15T20:10:22.328Z,95458.31
2023-01-15T20:13:09.776Z,95465.25
2023-01-15T20:15:39.046Z,95457.78
2023-01-15T20:18:08.183Z,95427.91
2023-01-15T20:20:39.408Z,95457.34
2023-01-15T20:23:07.856Z,95439.19
2023-01-15T20:25:37.058Z,95410.50
2023-01-15T20:28:06.989Z,95440.53
2023-01-15T20:30:35.427Z,95458.34
2023-01-15T20:33:03.747Z,95444.09
2023-01-15T20:35:32.443Z,95369.09
2023-01-15T20:38:01.124Z,95452.44
2023-01-15T20:40:30.072Z,95455.97
2023-01-15T20:43:15.486Z,95461.81
2023-01-15T20:45:45.209Z,95447.44
2023-01-15T20:48:30.999Z,95453.00
2023-01-15T20:51:05.613Z,95461.94
2023-01-15T20:53:35.350Z,95464.56
2023-01-15T20:56:05.499Z,95468.56
2023-01-15T20:58:33.768Z,95457.34
2023-01-15T21:01:09.218Z,95470.69
2023-01-15T21:03:38.233Z,95466.66
2023-01-15T21:06:24.767Z,95461.69
2023-01-15T21:08:55.738Z,95419.47
2023-01-15T21:11:23.970Z,95426.22
2023-01-15T21:13:52.381Z,95469.47
2023-01-15T21:16:22.077Z,95460.63
2023-01-15T21:18:51.117Z,95463.75
2023-01-15T21:21:21.867Z,95365.97
2023-01-15T21:23:50.435Z,95456.94
2023-01-15T21:26:18.941Z,95465.41
2023-01-15T21:28:47.361Z,95460.16
2023-01-15T21:31:15.845Z,95464.09
2023-01-15T21:33:45.668Z,95455.97
2023-01-15T21:36:16.139Z,95456.50
2023-01-15T21:38:50.628Z,95428.84
2023-01-15T21:41:19.275Z,95454.06
2023-01-15T21:44:04.957Z,95453.91
2023-01-15T21:46:33.369Z,95394.97
2023-01-15T21:49:03.171Z,95449.72
2023-01-15T21:51:32.181Z,95400.28
2023-01-15T21:54:00.840Z,95451.84
2023-01-15T21:56:29.154Z,95453.44
2023-01-15T21:58:57.352Z,95450.00
2023-01-15T22:01:26.106Z,95449.72
2023-01-15T22:03:54.640Z,95446.22
2023-01-15T22:06:24.564Z,95443.94
2023-01-15T22:08:55.095Z,95447.44
2023-01-15T22:11:23.463Z,95450.56
2023-01-15T22:13:54.621Z,95446.34
2023-01-15T22:16:22.895Z,95448.97
2023-01-15T22:18:52.716Z,95441.56
2023-01-15T22:21:21.129Z,95443.22
2023-01-15T22:23:50.914Z,95430.47
2023-01-15T22:26:20.144Z,95427.47
2023-01-15T22:28:48.747Z,95435.03
2023-01-15T22:31:18.094Z,95427.69
2023-01-15T22:33:46.527Z,95425.06
2023-01-15T22:36:15.651Z,95421.84
2023-01-15T22:38:44.397Z,95405.19
2023-01-15T22:41:14.381Z,95372.16
2023-01-15T22:43:42.702Z,95408.84
2023-01-15T22:46:12.205Z,95408.25
2023-01-15T22:48:40.583Z,95422.63
2023-01-15T22:51:08.912Z,95413.69
2023-01-15T22:53:37.423Z,95407.69
2023-01-15T22:56:06.569Z,95398.41
2023-01-15T22:58:36.435Z,95357.25
2023-01-15T23:01:05.380Z,95351.59
2023-01-15T23:03:35.902Z,95364.84
2023-01-15T23:06:04.869Z,95386.88
2023-01-15T23:08:35.479Z,95383.97
2023-01-15T23:11:04.314Z,95299.53
2023-01-15T23:13:33.467Z,95339.63
2023-01-15T23:16:03.327Z,95360.31
2023-01-15T23:18:32.708Z,95372.66
2023-01-15T23:21:04.225Z,95378.88
2023-01-15T23:23:32.685Z,95380.25
2023-01-15T23:26:02.855Z,95366.94
2023-01-15T23:28:31.471Z,95372.44
2023-01-15T23:30:59.971Z,95332.03
2023-01-15T23:33:29.884Z,95378.56
2023-01-15T23:35:59.439Z,95374.66
2023-01-15T23:38:28.137Z,95372.31
2023-01-15T23:40:57.499Z,95357.94
2023-01-15T23:43:43.534Z,95365.50
2023-01-15T23:46:35.311Z,95370.69
2023-01-15T23:49:09.524Z,95363.63
2023-01-15T23:51:39.004Z,95334.84
2023-01-15T23:54:08.757Z,95357.94
2023-01-15T23:56:37.983Z,95351.53
2023-01-15T23:59:06.258Z,95352.78
